createdAt,value
2022-10-11T00:01:03.881Z,102499.94
2022-10-11T00:03:30.502Z,102506.34
2022-10-11T00:05:57.321Z,102497.88
2022-10-11T00:08:23.903Z,102508.47
2022-10-11T00:11:04.433Z,102514.84
2022-10-11T00:13:31.591Z,102507.78
2022-10-11T00:16:01.208Z,102515.06
2022-10-11T00:18:30.288Z,102508.91
2022-10-11T00:21:06.082Z,102507.19
2022-10-11T00:23:33.277Z,102508.41
2022-10-11T00:26:01.946Z,102504.91
2022-10-11T00:28:31.395Z,102512.19
2022-10-11T00:30:58.221Z,102498.19
2022-10-11T00:33:24.920Z,102497.28
2022-10-11T00:35:51.583Z,102516.97
2022-10-11T00:38:18.493Z,102506.34
2022-10-11T00:40:45.933Z,102521.63
2022-10-11T00:43:21.861Z,102532.69
2022-10-11T00:45:57.730Z,102525.69
2022-10-11T00:48:43.071Z,102527.72
2022-10-11T00:51:22.595Z,102537.69
2022-10-11T00:53:51.198Z,102512.13
2022-10-11T00:56:33.706Z,102529.78
2022-10-11T00:59:07.018Z,102535.41
2022-10-11T01:01:34.410Z,102534.63
2022-10-11T01:04:04.250Z,102540.13
2022-10-11T01:06:30.766Z,102549.25
2022-10-11T01:08:57.696Z,102546.63
2022-10-11T01:11:27.269Z,102535.34
2022-10-11T01:14:04.983Z,102543.38
2022-10-11T01:16:44.831Z,102534.78
2022-10-11T01:19:45.801Z,102553.53
2022-10-11T01:22:27.540Z,102550.09
2022-10-11T01:25:22.964Z,102544.69
2022-10-11T01:28:09.776Z,102549.25
2022-10-11T01:30:38.053Z,102545.72
2022-10-11T01:33:16.653Z,102544.94
2022-10-11T01:36:10.678Z,102540.56
2022-10-11T01:38:46.854Z,102546.16
2022-10-11T01:41:25.406Z,102544.41
2022-10-11T01:44:02.249Z,102558.06
2022-10-11T01:46:32.327Z,102526.63
2022-10-11T01:49:01.733Z,102550.97
2022-10-11T01:51:33.130Z,102556.41
2022-10-11T01:54:07.169Z,102556.50
2022-10-11T01:57:04.314Z,102554.97
2022-10-11T01:59:49.421Z,102552.34
2022-10-11T02:02:46.873Z,102559.78
2022-10-11T02:05:51.970Z,102559.31
2022-10-11T02:08:44.295Z,102564.84
2022-10-11T02:11:24.354Z,102529.94
2022-10-11T02:14:10.649Z,102566.91
2022-10-11T02:16:43.995Z,102565.25
2022-10-11T02:19:15.058Z,102567.41
2022-10-11T02:21:44.776Z,102573.53
2022-10-11T02:24:35.786Z,102567.41
2022-10-11T02:27:08.098Z,102555.06
2022-10-11T02:29:39.683Z,102552.59
2022-10-11T02:32:08.507Z,102568.63
2022-10-11T02:34:44.512Z,102571.50
2022-10-11T02:37:31.958Z,102574.06
2022-10-11T02:40:24.963Z,102567.09
2022-10-11T02:43:02.099Z,102570.75
2022-10-11T02:45:44.091Z,102578.03
2022-10-11T02:48:12.083Z,102578.81
2022-10-11T02:50:42.705Z,102558.59
2022-10-11T02:53:10.079Z,102569.19
2022-10-11T02:55:39.626Z,102578.97
2022-10-11T02:58:06.245Z,102582.81
2022-10-11T03:00:32.847Z,102578.44
2022-10-11T03:02:59.412Z,102578.44
2022-10-11T03:05:30.796Z,102566.41
2022-10-11T03:07:58.988Z,102587.69
2022-10-11T03:10:25.835Z,102560.50
2022-10-11T03:12:54.622Z,102572.94
2022-10-11T03:15:23.422Z,102574.78
2022-10-11T03:17:49.957Z,102577.31
2022-10-11T03:20:16.854Z,102586.16
2022-10-11T03:22:43.563Z,102588.09
2022-10-11T03:25:12.558Z,102584.66
2022-10-11T03:27:39.095Z,102591.03
2022-10-11T03:30:06.503Z,102569.19
2022-10-11T03:32:33.056Z,102580.50
2022-10-11T03:34:59.634Z,102589.38
2022-10-11T03:37:26.452Z,102586.47
2022-10-11T03:39:53.055Z,102597.44
2022-10-11T03:42:20.140Z,102592.09
2022-10-11T03:44:51.756Z,102595.81
2022-10-11T03:47:18.431Z,102600.53
2022-10-11T03:49:44.924Z,102602.44
2022-10-11T03:52:11.681Z,102600.59
2022-10-11T03:54:38.390Z,102603.38
2022-10-11T03:57:05.051Z,102598.19
2022-10-11T03:59:31.627Z,102587.75
2022-10-11T04:02:00.313Z,102614.38
2022-10-11T04:04:30.432Z,102609.91
2022-10-11T04:06:57.011Z,102603.06
2022-10-11T04:09:23.591Z,102616.44
2022-10-11T04:11:52.479Z,102613.88
2022-10-11T04:14:19.027Z,102600.63
2022-10-11T04:16:48.784Z,102610.25
2022-10-11T04:19:15.629Z,102584.41
2022-10-11T04:21:42.175Z,102621.50
2022-10-11T04:24:13.057Z,102610.00
2022-10-11T04:26:39.588Z,102622.44
2022-10-11T04:29:06.207Z,102631.16
2022-10-11T04:31:35.263Z,102609.59
2022-10-11T04:34:04.810Z,102624.66
2022-10-11T04:36:33.883Z,102634.41
2022-10-11T04:39:01.720Z,102625.44
2022-10-11T04:41:29.502Z,102637.03
2022-10-11T04:43:56.372Z,102634.41
2022-10-11T04:46:23.980Z,102630.28
2022-10-11T04:48:52.900Z,102648.88
2022-10-11T04:51:20.408Z,102639.13
2022-10-11T04:53:50.241Z,102642.97
2022-10-11T04:56:18.501Z,102630.59
2022-10-11T04:58:48.078Z,102639.38
2022-10-11T05:01:15.214Z,102621.16
2022-10-11T05:03:43.874Z,102628.34
2022-10-11T05:06:10.997Z,102635.41
2022-10-11T05:08:40.692Z,102644.38
2022-10-11T05:11:10.913Z,102648.03
2022-10-11T05:13:37.543Z,102647.31
2022-10-11T05:16:09.795Z,102638.66
2022-10-11T05:18:38.656Z,102656.38
2022-10-11T05:21:09.969Z,102656.44
2022-10-11T05:23:37.185Z,102669.91
2022-10-11T05:26:04.405Z,102657.38
2022-10-11T05:28:31.822Z,102657.03
2022-10-11T05:30:58.530Z,102668.38
2022-10-11T05:33:27.824Z,102667.56
2022-10-11T05:35:54.580Z,102667.47
2022-10-11T05:38:21.159Z,102664.06
2022-10-11T05:40:47.749Z,102660.47
2022-10-11T05:43:16.887Z,102671.03
2022-10-11T05:45:44.423Z,102670.13
2022-10-11T05:48:11.179Z,102674.75
2022-10-11T05:50:38.641Z,102674.66
2022-10-11T05:53:08.147Z,102674.59
2022-10-11T05:55:39.819Z,102676.56
2022-10-11T05:58:07.598Z,102673.03
2022-10-11T06:00:40.521Z,102678.59
2022-10-11T06:03:08.712Z,102677.88
2022-10-11T06:05:37.676Z,102687.34
2022-10-11T06:08:06.659Z,102688.94
2022-10-11T06:10:33.705Z,102701.47
2022-10-11T06:13:00.728Z,102702.19
2022-10-11T06:15:27.729Z,102639.38
2022-10-11T06:17:54.648Z,102695.38
2022-10-11T06:20:21.309Z,102690.91
2022-10-11T06:22:47.899Z,102711.03
2022-10-11T06:25:14.484Z,102703.72
2022-10-11T06:27:41.177Z,102704.97
2022-10-11T06:30:10.658Z,102692.31
2022-10-11T06:32:37.326Z,102694.66
2022-10-11T06:35:05.614Z,102712.13
2022-10-11T06:37:32.572Z,102707.28
2022-10-11T06:39:59.263Z,102720.16
2022-10-11T06:42:25.835Z,102717.25
2022-10-11T06:44:54.666Z,102721.19
2022-10-11T06:47:21.238Z,102716.34
2022-10-11T06:49:47.893Z,102713.47
2022-10-11T06:52:14.544Z,102720.94
2022-10-11T06:54:45.004Z,102735.75
2022-10-11T06:57:14.587Z,102713.72
2022-10-11T06:59:41.157Z,102723.09
2022-10-11T07:02:08.838Z,102732.09
2022-10-11T07:04:35.437Z,102729.22
2022-10-11T07:07:02.115Z,102738.91
2022-10-11T07:09:28.903Z,102732.81
2022-10-11T07:11:57.994Z,102727.84
2022-10-11T07:14:29.362Z,102723.63
2022-10-11T07:16:58.443Z,102729.34
2022-10-11T07:19:27.280Z,102742.41
2022-10-11T07:21:53.908Z,102740.91
2022-10-11T07:24:20.609Z,102745.41
2022-10-11T07:26:47.227Z,102750.31
2022-10-11T07:29:13.893Z,102745.56
2022-10-11T07:31:43.936Z,102752.38
2022-10-11T07:34:10.845Z,102751.81
2022-10-11T07:36:37.518Z,102750.47
2022-10-11T07:39:07.085Z,102753.81
2022-10-11T07:41:33.721Z,102751.88
2022-10-11T07:44:01.129Z,102745.56
2022-10-11T07:46:27.737Z,102760.19
2022-10-11T07:48:54.786Z,102764.56
2022-10-11T07:51:26.112Z,102764.19
2022-10-11T07:53:55.591Z,102766.38
2022-10-11T07:56:28.473Z,102762.28
2022-10-11T07:58:58.815Z,102759.97
2022-10-11T08:01:26.909Z,102769.47
2022-10-11T08:03:54.096Z,102774.63
2022-10-11T08:06:23.278Z,102769.59
2022-10-11T08:08:50.310Z,102765.50
2022-10-11T08:11:26.437Z,102769.50
2022-10-11T08:13:53.102Z,102775.34
2022-10-11T08:16:20.344Z,102770.50
2022-10-11T08:18:50.345Z,102781.69
2022-10-11T08:21:19.336Z,102772.22
2022-10-11T08:23:49.454Z,102780.69
2022-10-11T08:26:16.262Z,102788.47
2022-10-11T08:28:45.372Z,102780.69
2022-10-11T08:31:14.417Z,102772.00
2022-10-11T08:33:44.519Z,102780.47
2022-10-11T08:36:11.893Z,102785.13
2022-10-11T08:38:39.426Z,102786.66
2022-10-11T08:41:39.261Z,102784.31
2022-10-11T08:44:08.831Z,102794.13
2022-10-11T08:46:35.517Z,102790.41
2022-10-11T08:49:06.772Z,102781.50
2022-10-11T08:52:02.388Z,102719.00
2022-10-11T08:54:49.685Z,102784.16
2022-10-11T08:57:24.798Z,102784.41
2022-10-11T08:59:55.974Z,102790.84
2022-10-11T09:02:55.815Z,102782.25
2022-10-11T09:05:24.815Z,102765.78
2022-10-11T09:08:10.838Z,102790.53
2022-10-11T09:10:56.444Z,102799.63
2022-10-11T09:13:55.362Z,102796.91
2022-10-11T09:16:42.710Z,102794.38
2022-10-11T09:19:27.665Z,102789.97
2022-10-11T09:22:43.282Z,102793.59
2022-10-11T09:25:18.298Z,102794.31
2022-10-11T09:28:02.987Z,102769.78
2022-10-11T09:30:31.510Z,102794.81
2022-10-11T09:33:11.842Z,102797.25
2022-10-11T09:35:46.141Z,102798.03
2022-10-11T09:38:21.791Z,102792.78
2022-10-11T09:41:17.768Z,102795.69
2022-10-11T09:43:49.601Z,102796.94
2022-10-11T09:46:32.444Z,102789.94
2022-10-11T09:49:02.853Z,102781.47
2022-10-11T09:51:30.204Z,102789.16
2022-10-11T09:54:02.866Z,102794.00
2022-10-11T09:56:30.910Z,102798.63
2022-10-11T09:59:27.575Z,102798.50
2022-10-11T10:02:27.235Z,102791.50
2022-10-11T10:04:53.776Z,102802.84
2022-10-11T10:07:21.288Z,102796.88
2022-10-11T10:09:51.360Z,102795.22
2022-10-11T10:12:24.341Z,102794.25
2022-10-11T10:15:19.570Z,102787.88
2022-10-11T10:17:55.253Z,102790.13
2022-10-11T10:20:30.180Z,102756.66
2022-10-11T10:22:57.208Z,102798.63
2022-10-11T10:25:32.899Z,102776.28
2022-10-11T10:28:04.988Z,102795.47
2022-10-11T10:30:35.389Z,102781.56
2022-10-11T10:33:10.949Z,102784.78
2022-10-11T10:35:52.855Z,102786.25
2022-10-11T10:38:37.439Z,102780.75
2022-10-11T10:41:14.741Z,102778.97
2022-10-11T10:43:45.569Z,102782.03
2022-10-11T10:46:18.067Z,102773.09
2022-10-11T10:52:33.664Z,102777.09
2022-10-11T10:55:20.885Z,102775.19
2022-10-11T10:58:27.541Z,102703.81
2022-10-11T11:00:59.770Z,102771.19
2022-10-11T11:03:41.459Z,102767.38
2022-10-11T11:06:14.841Z,102769.81
2022-10-11T11:08:49.656Z,102771.78
2022-10-11T11:11:45.411Z,102767.00
2022-10-11T11:14:40.133Z,102764.75
2022-10-11T11:17:28.091Z,102763.66
2022-10-11T11:19:57.425Z,102762.16
2022-10-11T11:22:42.202Z,102760.19
2022-10-11T11:25:18.079Z,102748.72
2022-10-11T11:28:18.415Z,102751.56
2022-10-11T11:31:03.600Z,102749.59
2022-10-11T11:33:50.315Z,102750.22
2022-10-11T11:36:29.315Z,102738.81
2022-10-11T11:38:59.801Z,102708.25
2022-10-11T11:41:30.822Z,102706.94
2022-10-11T11:44:31.426Z,102741.97
2022-10-11T11:47:10.722Z,102727.88
2022-10-11T11:52:30.839Z,102735.94
2022-10-11T11:55:16.255Z,102737.84
2022-10-11T11:57:42.841Z,102724.44
2022-10-11T12:00:15.303Z,102721.25
2022-10-11T12:02:47.218Z,102720.81
2022-10-11T12:05:19.146Z,102718.03
2022-10-11T12:07:51.793Z,102715.09
2022-10-11T12:10:32.960Z,102697.59
2022-10-11T12:13:32.604Z,102713.28
2022-10-11T12:16:22.497Z,102704.25
2022-10-11T12:19:03.629Z,102677.59
2022-10-11T12:21:33.433Z,102701.91
2022-10-11T12:24:21.251Z,102704.66
2022-10-11T12:26:56.447Z,102705.94
2022-10-11T12:29:40.705Z,102703.75
2022-10-11T12:32:07.261Z,102702.69
2022-10-11T12:34:36.766Z,102700.53
2022-10-11T12:37:18.275Z,102702.75
2022-10-11T12:39:47.529Z,102699.88
2022-10-11T12:42:34.516Z,102691.03
2022-10-11T12:45:13.241Z,102690.22
2022-10-11T12:47:52.090Z,102691.84
2022-10-11T12:50:30.191Z,102690.69
2022-10-11T12:53:03.250Z,102696.50
2022-10-11T12:55:50.008Z,102703.06
2022-10-11T12:58:28.501Z,102688.63
2022-10-11T13:00:56.161Z,102695.91
2022-10-11T13:03:58.787Z,102688.47
2022-10-11T13:06:33.313Z,102682.34
2022-10-11T13:09:14.058Z,102667.22
2022-10-11T13:11:48.428Z,102694.38
2022-10-11T13:14:22.144Z,102690.75
2022-10-11T13:17:11.391Z,102690.50
2022-10-11T13:22:21.538Z,102685.91
2022-10-11T13:24:50.771Z,102673.41
2022-10-11T13:27:21.512Z,102678.16
2022-10-11T13:29:50.300Z,102683.16
2022-10-11T13:32:26.286Z,102680.72
2022-10-11T13:37:38.668Z,102683.38
2022-10-11T13:40:05.839Z,102677.63
2022-10-11T13:42:34.681Z,102675.03
2022-10-11T13:45:01.708Z,102677.09
2022-10-11T13:47:32.592Z,102668.59
2022-10-11T13:50:11.024Z,102663.44
2022-10-11T13:53:08.004Z,102657.13
2022-10-11T13:55:51.524Z,102662.34
2022-10-11T13:58:35.540Z,102658.00
2022-10-11T14:01:20.064Z,102668.59
2022-10-11T14:04:15.626Z,102640.00
2022-10-11T14:06:59.422Z,102663.38
2022-10-11T14:09:35.394Z,102659.03
2022-10-11T14:12:32.222Z,102659.34
2022-10-11T14:15:00.960Z,102605.38
2022-10-11T14:17:47.519Z,102653.41
2022-10-11T14:20:22.311Z,102655.63
2022-10-11T14:22:54.493Z,102659.41
2022-10-11T14:25:21.874Z,102660.16
2022-10-11T14:27:49.029Z,102656.34
2022-10-11T14:30:26.407Z,102638.53
2022-10-11T14:32:56.780Z,102647.19
2022-10-11T14:35:25.705Z,102637.63
2022-10-11T14:37:53.154Z,102640.63
2022-10-11T14:40:25.608Z,102644.19
2022-10-11T14:42:52.346Z,102649.47
2022-10-11T14:45:21.505Z,102643.59
2022-10-11T14:47:48.447Z,102649.78
2022-10-11T14:50:28.987Z,102644.59
2022-10-11T14:52:56.343Z,102648.97
2022-10-11T14:55:24.502Z,102640.06
2022-10-11T14:57:51.149Z,102645.94
2022-10-11T15:00:23.722Z,102650.31
2022-10-11T15:02:52.763Z,102642.81
2022-10-11T15:05:20.445Z,102631.84
2022-10-11T15:07:47.566Z,102642.47
2022-10-11T15:10:20.229Z,102642.31
2022-10-11T15:12:46.786Z,102629.56
2022-10-11T15:15:19.673Z,102635.66
2022-10-11T15:17:48.442Z,102638.16
2022-10-11T15:20:35.635Z,102642.22
2022-10-11T15:23:06.410Z,102625.66
2022-10-11T15:25:35.189Z,102635.69
2022-10-11T15:28:02.060Z,102633.06
2022-10-11T15:30:38.498Z,102623.53
2022-10-11T15:33:07.920Z,102606.00
2022-10-11T15:35:34.483Z,102612.53
2022-10-11T15:38:01.072Z,102617.00
2022-10-11T15:40:35.788Z,102619.06
2022-10-11T15:43:02.848Z,102625.00
2022-10-11T15:45:30.454Z,102619.78
2022-10-11T15:47:59.270Z,102627.59
2022-10-11T15:50:37.525Z,102620.63
2022-10-11T15:53:06.903Z,102617.31
2022-10-11T15:55:38.581Z,102608.63
2022-10-11T15:58:05.737Z,102605.44
2022-10-11T16:00:32.319Z,102609.63
2022-10-11T16:03:01.750Z,102618.16
2022-10-11T16:05:30.512Z,102601.22
2022-10-11T16:07:57.194Z,102612.66
2022-10-11T16:10:23.805Z,102608.59
2022-10-11T16:12:50.454Z,102611.78
2022-10-11T16:15:17.508Z,102600.47
2022-10-11T16:17:45.324Z,102604.66
2022-10-11T16:20:12.936Z,102611.72
2022-10-11T16:22:42.026Z,102615.91
2022-10-11T16:25:10.902Z,102612.09
2022-10-11T16:27:42.235Z,102622.66
2022-10-11T16:30:11.852Z,102622.50
2022-10-11T16:32:39.160Z,102615.94
2022-10-11T16:35:07.593Z,102613.13
2022-10-11T16:37:35.441Z,102617.47
2022-10-11T16:40:02.070Z,102620.31
2022-10-11T16:42:31.013Z,102617.38
2022-10-11T16:44:57.774Z,102614.69
2022-10-11T16:47:24.560Z,102618.38
2022-10-11T16:49:53.476Z,102620.34
2022-10-11T16:52:20.031Z,102623.97
2022-10-11T16:54:48.389Z,102617.41
2022-10-11T16:57:16.786Z,102614.47
2022-10-11T16:59:43.762Z,102619.00
2022-10-11T17:02:22.569Z,102620.25
2022-10-11T17:04:54.060Z,102611.81
2022-10-11T17:07:22.303Z,102625.44
2022-10-11T17:09:49.530Z,102625.34
2022-10-11T17:12:18.857Z,102629.59
2022-10-11T17:14:45.654Z,102627.66
2022-10-11T17:17:12.616Z,102632.00
2022-10-11T17:19:45.030Z,102631.78
2022-10-11T17:22:13.114Z,102626.06
2022-10-11T17:24:39.856Z,102641.28
2022-10-11T17:27:09.735Z,102630.94
2022-10-11T17:29:37.056Z,102603.72
2022-10-11T17:32:06.572Z,102637.50
2022-10-11T17:34:35.733Z,102646.34
2022-10-11T17:37:06.306Z,102641.47
2022-10-11T17:39:32.973Z,102637.72
2022-10-11T17:42:07.335Z,102633.59
2022-10-11T17:44:35.099Z,102631.59
2022-10-11T17:47:02.595Z,102633.72
2022-10-11T17:49:29.192Z,102637.41
2022-10-11T17:51:56.619Z,102642.25
2022-10-11T17:54:23.248Z,102636.38
2022-10-11T17:56:50.395Z,102639.72
2022-10-11T17:59:18.905Z,102639.09
2022-10-11T18:01:45.469Z,102634.44
2022-10-11T18:04:16.654Z,102641.91
2022-10-11T18:06:45.530Z,102646.84
2022-10-11T18:09:13.751Z,102637.28
2022-10-11T18:11:42.815Z,102641.44
2022-10-11T18:14:11.961Z,102643.78
2022-10-11T18:16:39.664Z,102637.91
2022-10-11T18:19:10.361Z,102638.13
2022-10-11T18:21:40.282Z,102637.84
2022-10-11T18:24:15.122Z,102638.16
2022-10-11T18:26:42.367Z,102644.81
2022-10-11T18:29:09.356Z,102641.78
2022-10-11T18:31:35.972Z,102629.56
2022-10-11T18:34:04.803Z,102633.41
2022-10-11T18:36:32.710Z,102643.06
2022-10-11T18:39:02.121Z,102625.94
2022-10-11T18:41:31.658Z,102645.59
2022-10-11T18:44:01.643Z,102640.44
2022-10-11T18:46:29.655Z,102644.53
2022-10-11T18:48:58.343Z,102636.53
2022-10-11T18:51:32.357Z,102630.75
2022-10-11T18:53:59.960Z,102625.97
2022-10-11T18:56:32.733Z,102626.81
2022-10-11T18:58:59.365Z,102636.25
2022-10-11T19:01:29.662Z,102628.38
2022-10-11T19:03:58.446Z,102616.00
2022-10-11T19:06:33.373Z,102629.44
2022-10-11T19:09:10.948Z,102630.78
2022-10-11T19:11:40.536Z,102628.38
2022-10-11T19:14:11.994Z,102631.22
2022-10-11T19:16:41.806Z,102636.97
2022-10-11T19:19:12.749Z,102541.03
2022-10-11T19:21:39.477Z,102631.50
2022-10-11T19:24:09.039Z,102620.25
2022-10-11T19:26:38.949Z,102621.31
2022-10-11T19:29:07.106Z,102628.00
2022-10-11T19:31:38.605Z,102630.72
2022-10-11T19:34:05.192Z,102623.94
2022-10-11T19:36:36.450Z,102618.91
2022-10-11T19:39:04.502Z,102611.91
2022-10-11T19:41:31.486Z,102619.31
2022-10-11T19:44:00.802Z,102589.78
2022-10-11T19:49:17.613Z,102608.56
2022-10-11T19:51:44.668Z,102615.78
2022-10-11T19:54:13.741Z,102615.31
2022-10-11T19:56:43.389Z,102609.16
2022-10-11T19:59:11.311Z,102616.69
2022-10-11T20:01:38.011Z,102605.03
2022-10-11T20:04:07.402Z,102621.78
2022-10-11T20:06:40.178Z,102612.28
2022-10-11T20:09:28.435Z,102614.13
2022-10-11T20:11:54.612Z,102619.66
2022-10-11T20:14:21.257Z,102614.41
2022-10-11T20:16:50.852Z,102613.84
2022-10-11T20:19:18.582Z,102620.31
2022-10-11T20:21:45.468Z,102616.88
2022-10-11T20:24:12.507Z,102614.44
2022-10-11T20:26:41.276Z,102609.22
2022-10-11T20:29:08.065Z,102618.38
2022-10-11T20:31:41.772Z,102619.63
2022-10-11T20:34:09.547Z,102608.47
2022-10-11T20:36:36.744Z,102629.38
2022-10-11T20:39:04.948Z,102615.19
2022-10-11T20:41:36.893Z,102629.78
2022-10-11T20:44:04.591Z,102623.00
2022-10-11T20:46:34.118Z,102622.13
2022-10-11T20:49:03.458Z,102558.13
2022-10-11T20:51:34.642Z,102618.31
2022-10-11T20:54:02.307Z,102627.38
2022-10-11T20:56:29.869Z,102626.59
2022-10-11T20:58:57.820Z,102615.41
2022-10-11T21:01:27.242Z,102626.00
2022-10-11T21:03:54.580Z,102616.50
2022-10-11T21:06:21.317Z,102628.44
2022-10-11T21:08:47.965Z,102522.72
2022-10-11T21:11:14.525Z,102629.91
2022-10-11T21:13:41.166Z,102629.09
2022-10-11T21:16:12.099Z,102626.38
2022-10-11T21:18:39.024Z,102628.41
2022-10-11T21:21:11.555Z,102632.31
2022-10-11T21:23:40.900Z,102617.78
2022-10-11T21:26:12.261Z,102625.59
2022-10-11T21:28:42.067Z,102623.06
2022-10-11T21:31:10.285Z,102626.94
2022-10-11T21:33:37.341Z,102596.91
2022-10-11T21:36:05.247Z,102611.19
2022-10-11T21:38:31.988Z,102626.53
2022-10-11T21:41:01.833Z,102622.25
2022-10-11T21:43:28.453Z,102616.31
2022-10-11T21:45:55.000Z,102628.88
2022-10-11T21:48:21.586Z,102626.31
2022-10-11T21:50:55.038Z,102626.59
2022-10-11T21:53:21.692Z,102618.69
2022-10-11T21:55:48.290Z,102625.88
2022-10-11T21:58:14.832Z,102622.66
2022-10-11T22:00:41.463Z,102619.03
2022-10-11T22:03:08.423Z,102620.31
2022-10-11T22:05:34.983Z,102622.44
2022-10-11T22:08:01.574Z,102618.91
2022-10-11T22:10:28.181Z,102611.91
2022-10-11T22:12:54.762Z,102616.75
2022-10-11T22:15:23.644Z,102616.84
2022-10-11T22:17:50.221Z,102582.94
2022-10-11T22:20:16.884Z,102606.50
2022-10-11T22:22:43.472Z,102598.69
2022-10-11T22:25:10.040Z,102603.28
2022-10-11T22:27:36.566Z,102603.28
2022-10-11T22:30:03.537Z,102604.31
2022-10-11T22:32:32.328Z,102608.47
2022-10-11T22:34:58.851Z,102612.13
2022-10-11T22:37:25.395Z,102607.78
2022-10-11T22:39:54.546Z,102604.63
2022-10-11T22:42:25.461Z,102613.38
2022-10-11T22:44:56.747Z,102610.66
2022-10-11T22:47:23.315Z,102599.38
2022-10-11T22:49:49.863Z,102599.44
2022-10-11T22:52:16.429Z,102606.63
2022-10-11T22:54:42.990Z,102604.97
2022-10-11T22:57:09.665Z,102599.03
2022-10-11T22:59:40.777Z,102603.56
2022-10-11T23:02:10.066Z,102600.22
2022-10-11T23:04:36.601Z,102601.31
2022-10-11T23:07:05.156Z,102603.19
2022-10-11T23:09:31.972Z,102594.53
2022-10-11T23:12:03.556Z,102601.81
2022-10-11T23:14:30.090Z,102607.25
2022-10-11T23:16:58.879Z,102607.59
2022-10-11T23:19:25.575Z,102595.25
2022-10-11T23:21:54.491Z,102601.53
2022-10-11T23:24:21.136Z,102565.88
2022-10-11T23:26:49.927Z,102614.41
2022-10-11T23:29:16.738Z,102614.59
2022-10-11T23:31:43.302Z,102608.53
2022-10-11T23:34:11.983Z,102602.13
2022-10-11T23:36:38.669Z,102601.44
2022-10-11T23:39:05.461Z,102594.31
2022-10-11T23:41:32.007Z,102593.69
2022-10-11T23:43:58.783Z,102587.56
2022-10-11T23:46:25.494Z,102556.13
2022-10-11T23:48:52.056Z,102597.19
2022-10-11T23:51:21.222Z,102595.47
2022-10-11T23:53:47.775Z,102592.75
2022-10-11T23:56:14.370Z,102590.22
2022-10-11T23:58:43.132Z,102589.41
